createdAt,value
2022-08-28T00:00:08.685Z,98.93
2022-08-28T00:01:09.404Z,98.82
2022-08-28T00:02:08.669Z,98.82
2022-08-28T00:03:08.735Z,99.02
2022-08-28T00:04:08.642Z,99.02
2022-08-28T00:05:08.758Z,99.02
2022-08-28T00:06:08.623Z,99.13
2022-08-28T00:07:08.619Z,98.93
2022-08-28T00:08:08.657Z,99.02
2022-08-28T00:09:08.585Z,99.22
2022-08-28T00:10:08.581Z,99.22
2022-08-28T00:11:08.567Z,99.13
2022-08-28T00:12:08.559Z,99.02
2022-08-28T00:13:08.569Z,98.93
2022-08-28T00:14:08.542Z,99.02
2022-08-28T00:15:08.528Z,99.02
2022-08-28T00:16:08.567Z,99.02
2022-08-28T00:17:08.517Z,99.22
2022-08-28T00:18:08.525Z,99.33
2022-08-28T00:19:08.488Z,99.22
2022-08-28T00:20:08.479Z,99.33
2022-08-28T00:21:08.461Z,99.22
2022-08-28T00:22:08.460Z,99.13
2022-08-28T00:23:08.460Z,99.02
2022-08-28T00:24:08.435Z,99.07
2022-08-28T00:25:08.423Z,99.07
2022-08-28T00:26:08.420Z,99.02
2022-08-28T00:27:08.399Z,99.07
2022-08-28T00:28:08.572Z,98.87
2022-08-28T00:29:08.380Z,98.87
2022-08-28T00:30:08.374Z,99.18
2022-08-28T00:31:08.415Z,99.18
2022-08-28T00:32:08.358Z,99.27
2022-08-28T00:33:08.359Z,99.48
2022-08-28T00:34:08.338Z,99.38
2022-08-28T00:35:08.324Z,99.38
2022-08-28T00:36:08.317Z,99.38
2022-08-28T00:37:08.301Z,99.27
2022-08-28T00:38:08.319Z,99.38
2022-08-28T00:39:08.280Z,99.27
2022-08-28T00:40:08.319Z,99.27
2022-08-28T00:41:08.260Z,99.27
2022-08-28T00:42:08.255Z,99.38
2022-08-28T00:43:08.256Z,99.38
2022-08-28T00:44:08.237Z,99.52
2022-08-28T00:45:08.219Z,99.62
2022-08-28T00:46:08.252Z,99.73
2022-08-28T00:47:08.205Z,99.73
2022-08-28T00:48:08.375Z,99.83
2022-08-28T00:49:08.175Z,99.93
2022-08-28T00:50:08.170Z,99.93
2022-08-28T00:51:08.155Z,99.99
2022-08-28T00:52:08.237Z,99.93
2022-08-28T00:53:08.154Z,99.99
2022-08-28T00:54:08.340Z,99.99
2022-08-28T00:55:08.116Z,99.99
2022-08-28T00:56:12.240Z,99.99
2022-08-28T00:57:08.099Z,99.99
2022-08-28T00:58:08.195Z,99.99
2022-08-28T00:59:08.088Z,99.99
2022-08-28T01:00:08.072Z,99.99
2022-08-28T01:01:08.067Z,99.99
2022-08-28T01:02:08.137Z,99.99
2022-08-28T01:03:08.131Z,99.99
2022-08-28T01:04:08.027Z,99.99
2022-08-28T01:05:08.011Z,99.99
2022-08-28T01:06:08.007Z,99.93
2022-08-28T01:07:07.991Z,99.93
2022-08-28T01:08:08.005Z,99.99
2022-08-28T01:09:07.976Z,99.93
2022-08-28T01:10:07.966Z,99.93
2022-08-28T01:11:07.956Z,99.93
2022-08-28T01:12:07.942Z,99.99
2022-08-28T01:13:07.947Z,99.99
2022-08-28T01:14:07.923Z,99.99
2022-08-28T01:15:07.909Z,99.99
2022-08-28T01:16:07.960Z,99.99
2022-08-28T01:17:07.889Z,99.99
2022-08-28T01:18:08.582Z,99.99
2022-08-28T01:19:07.867Z,99.99
2022-08-28T01:20:07.859Z,99.99
2022-08-28T01:21:07.850Z,99.99
2022-08-28T01:22:07.853Z,99.99
2022-08-28T01:23:07.853Z,99.99
2022-08-28T01:24:07.819Z,99.99
2022-08-28T01:25:07.806Z,99.99
2022-08-28T01:26:11.666Z,99.98
2022-08-28T01:27:07.800Z,99.98
2022-08-28T01:28:07.799Z,99.98
2022-08-28T01:29:07.764Z,99.87
2022-08-28T01:30:07.759Z,99.77
2022-08-28T01:31:07.802Z,99.77
2022-08-28T01:32:07.742Z,99.77
2022-08-28T01:33:07.748Z,99.87
2022-08-28T01:34:07.723Z,99.57
2022-08-28T01:35:07.707Z,99.57
2022-08-28T01:36:07.702Z,99.77
2022-08-28T01:37:07.682Z,99.98
2022-08-28T01:38:07.699Z,99.98
2022-08-28T01:39:07.665Z,99.99
2022-08-28T01:40:07.750Z,99.99
2022-08-28T01:41:07.646Z,99.99
2022-08-28T01:42:07.638Z,99.99
2022-08-28T01:43:07.644Z,99.99
2022-08-28T01:44:07.623Z,99.99
2022-08-28T01:45:07.604Z,99.99
2022-08-28T01:46:07.642Z,99.99
2022-08-28T01:47:07.585Z,99.99
2022-08-28T01:48:07.598Z,99.99
2022-08-28T01:49:07.563Z,99.99
2022-08-28T01:50:07.554Z,99.99
2022-08-28T01:51:07.550Z,99.99
2022-08-28T01:52:07.535Z,99.99
2022-08-28T01:53:07.538Z,99.99
2022-08-28T01:54:07.524Z,99.99
2022-08-28T01:55:07.511Z,99.99
2022-08-28T01:56:07.492Z,99.99
2022-08-28T01:57:07.477Z,99.99
2022-08-28T01:58:07.494Z,99.87
2022-08-28T01:59:07.469Z,99.77
2022-08-28T02:00:07.451Z,99.77
2022-08-28T02:01:07.436Z,99.87
2022-08-28T02:02:07.493Z,99.99
2022-08-28T02:03:07.439Z,99.87
2022-08-28T02:04:07.476Z,99.77
2022-08-28T02:05:07.397Z,99.77
2022-08-28T02:06:07.389Z,99.87
2022-08-28T02:07:07.373Z,99.87
2022-08-28T02:08:07.389Z,99.87
2022-08-28T02:09:07.354Z,99.87
2022-08-28T02:10:07.364Z,99.77
2022-08-28T02:11:07.334Z,99.77
2022-08-28T02:12:07.331Z,99.67
2022-08-28T02:13:07.331Z,99.72
2022-08-28T02:14:07.308Z,99.72
2022-08-28T02:15:07.293Z,99.62
2022-08-28T02:16:07.361Z,99.72
2022-08-28T02:17:07.275Z,99.72
2022-08-28T02:18:07.285Z,99.62
2022-08-28T02:19:07.250Z,99.82
2022-08-28T02:20:07.245Z,99.92
2022-08-28T02:21:07.230Z,99.99
2022-08-28T02:22:07.224Z,99.92
2022-08-28T02:23:07.232Z,99.82
2022-08-28T02:24:07.203Z,99.72
2022-08-28T02:25:07.190Z,99.72
2022-08-28T02:26:07.183Z,99.72
2022-08-28T02:27:07.167Z,99.72
2022-08-28T02:28:07.183Z,99.72
2022-08-28T02:29:07.148Z,99.82
2022-08-28T02:30:07.139Z,99.82
2022-08-28T02:31:07.285Z,99.92
2022-08-28T02:32:07.121Z,99.99
2022-08-28T02:33:07.132Z,99.99
2022-08-28T02:34:07.107Z,99.99
2022-08-28T02:35:12.118Z,99.99
2022-08-28T02:36:07.091Z,99.99
2022-08-28T02:37:07.066Z,99.99
2022-08-28T02:38:07.137Z,99.99
2022-08-28T02:39:07.049Z,99.99
2022-08-28T02:40:07.119Z,99.99
2022-08-28T02:41:07.028Z,99.99
2022-08-28T02:42:07.825Z,99.99
2022-08-28T02:43:07.027Z,99.99
2022-08-28T02:44:07.002Z,99.99
2022-08-28T02:45:06.986Z,99.99
2022-08-28T02:46:07.045Z,99.99
2022-08-28T02:47:06.964Z,99.99
2022-08-28T02:48:12.023Z,99.99
2022-08-28T02:49:07.183Z,99.99
2022-08-28T02:50:06.980Z,99.99
2022-08-28T02:51:06.921Z,99.99
2022-08-28T02:52:06.925Z,99.99
2022-08-28T02:53:06.925Z,99.99
2022-08-28T02:54:06.903Z,99.99
2022-08-28T02:55:06.911Z,99.99
2022-08-28T02:56:06.875Z,99.99
2022-08-28T02:57:06.860Z,99.99
2022-08-28T02:58:06.984Z,99.99
2022-08-28T02:59:06.860Z,99.99
2022-08-28T03:00:06.852Z,99.99
2022-08-28T03:01:06.894Z,99.99
2022-08-28T03:02:06.820Z,99.99
2022-08-28T03:03:06.800Z,99.99
2022-08-28T03:04:06.813Z,99.99
2022-08-28T03:05:06.781Z,99.99
2022-08-28T03:06:06.782Z,99.99
2022-08-28T03:07:06.799Z,99.99
2022-08-28T03:08:06.873Z,99.99
2022-08-28T03:09:06.766Z,99.99
2022-08-28T03:10:06.738Z,99.99
2022-08-28T03:11:06.741Z,99.99
2022-08-28T03:12:06.715Z,99.99
2022-08-28T03:13:06.718Z,99.99
2022-08-28T03:14:06.722Z,99.99
2022-08-28T03:15:06.684Z,99.99
2022-08-28T03:16:06.667Z,99.99
2022-08-28T03:17:06.662Z,99.99
2022-08-28T03:18:08.172Z,99.99
2022-08-28T03:19:06.659Z,99.99
2022-08-28T03:20:06.630Z,99.99
2022-08-28T03:21:06.619Z,99.99
2022-08-28T03:22:06.605Z,99.99
2022-08-28T03:23:06.605Z,99.99
2022-08-28T03:24:06.601Z,99.99
2022-08-28T03:25:06.583Z,99.99
2022-08-28T03:26:06.562Z,99.99
2022-08-28T03:27:06.561Z,99.99
2022-08-28T03:28:06.627Z,99.99
2022-08-28T03:29:06.563Z,99.99
2022-08-28T03:30:06.521Z,99.99
2022-08-28T03:31:06.606Z,99.99
2022-08-28T03:32:06.501Z,99.99
2022-08-28T03:33:06.541Z,99.99
2022-08-28T03:34:06.485Z,99.99
2022-08-28T03:35:06.479Z,99.99
2022-08-28T03:36:06.464Z,99.99
2022-08-28T03:37:06.455Z,99.99
2022-08-28T03:38:06.500Z,99.99
2022-08-28T03:39:06.452Z,99.99
2022-08-28T03:40:06.446Z,99.99
2022-08-28T03:41:06.427Z,99.99
2022-08-28T03:42:06.400Z,99.99
2022-08-28T03:43:06.950Z,99.99
2022-08-28T03:44:06.379Z,99.99
2022-08-28T03:45:06.372Z,99.99
2022-08-28T03:46:06.414Z,99.99
2022-08-28T03:47:06.350Z,99.99
2022-08-28T03:48:06.417Z,99.99
2022-08-28T03:49:06.332Z,99.99
2022-08-28T03:50:06.318Z,99.99
2022-08-28T03:51:06.311Z,99.99
2022-08-28T03:52:06.297Z,99.99
2022-08-28T03:53:06.314Z,99.99
2022-08-28T03:54:06.280Z,99.99
2022-08-28T03:55:06.271Z,99.99
2022-08-28T03:56:06.258Z,99.99
2022-08-28T03:57:06.257Z,99.99
2022-08-28T03:58:06.299Z,99.99
2022-08-28T03:59:06.231Z,99.99
2022-08-28T04:00:06.219Z,99.99
2022-08-28T04:01:06.242Z,99.99
2022-08-28T04:02:06.199Z,99.99
2022-08-28T04:03:06.254Z,99.99
2022-08-28T04:04:06.176Z,99.99
2022-08-28T04:05:06.174Z,99.99
2022-08-28T04:06:06.157Z,99.99
2022-08-28T04:07:06.151Z,99.99
2022-08-28T04:08:06.215Z,99.99
2022-08-28T04:09:06.152Z,99.99
2022-08-28T04:10:06.115Z,99.99
2022-08-28T04:11:06.111Z,99.99
2022-08-28T04:12:06.100Z,99.99
2022-08-28T04:13:06.093Z,99.99
2022-08-28T04:14:06.101Z,99.99
2022-08-28T04:15:07.093Z,99.99
2022-08-28T04:16:06.588Z,99.99
2022-08-28T04:17:06.109Z,99.99
2022-08-28T04:18:06.078Z,99.99
2022-08-28T04:19:06.048Z,99.99
2022-08-28T04:20:06.018Z,99.99
2022-08-28T04:21:06.010Z,99.99
2022-08-28T04:22:05.994Z,99.99
2022-08-28T04:23:05.989Z,99.99
2022-08-28T04:24:09.516Z,99.99
2022-08-28T04:25:05.969Z,99.99
2022-08-28T04:26:05.951Z,99.99
2022-08-28T04:27:05.943Z,99.99
2022-08-28T04:28:05.971Z,99.99
2022-08-28T04:29:05.941Z,99.99
2022-08-28T04:30:05.907Z,99.99
2022-08-28T04:31:05.951Z,99.99
2022-08-28T04:32:05.912Z,99.99
2022-08-28T04:33:05.884Z,99.99
2022-08-28T04:34:05.908Z,99.99
2022-08-28T04:35:05.861Z,99.99
2022-08-28T04:36:05.846Z,99.99
2022-08-28T04:37:05.844Z,99.99
2022-08-28T04:38:05.828Z,99.99
2022-08-28T04:39:05.851Z,99.99
2022-08-28T04:40:05.834Z,99.99
2022-08-28T04:41:05.800Z,99.99
2022-08-28T04:42:05.788Z,99.99
2022-08-28T04:43:05.784Z,99.99
2022-08-28T04:44:05.782Z,99.99
2022-08-28T04:45:05.762Z,99.99
2022-08-28T04:46:05.796Z,99.99
2022-08-28T04:47:06.275Z,99.99
2022-08-28T04:48:05.739Z,99.99
2022-08-28T04:49:05.747Z,99.99
2022-08-28T04:50:05.706Z,99.99
2022-08-28T04:51:05.700Z,99.99
2022-08-28T04:52:05.687Z,99.99
2022-08-28T04:53:05.683Z,99.99
2022-08-28T04:54:05.684Z,99.99
2022-08-28T04:55:05.661Z,99.99
2022-08-28T04:56:05.644Z,99.99
2022-08-28T04:57:06.472Z,99.99
2022-08-28T04:58:05.671Z,99.99
2022-08-28T04:59:05.641Z,99.99
2022-08-28T05:00:05.604Z,99.99
2022-08-28T05:01:05.626Z,99.99
2022-08-28T05:02:05.657Z,99.99
2022-08-28T05:03:05.577Z,99.99
2022-08-28T05:04:05.586Z,99.99
2022-08-28T05:05:05.557Z,99.99
2022-08-28T05:06:05.542Z,99.99
2022-08-28T05:07:05.545Z,99.99
2022-08-28T05:08:05.522Z,99.99
2022-08-28T05:09:05.539Z,99.99
2022-08-28T05:10:05.503Z,99.99
2022-08-28T05:11:05.496Z,99.99
2022-08-28T05:12:05.480Z,99.99
2022-08-28T05:13:05.474Z,99.99
2022-08-28T05:14:05.513Z,99.99
2022-08-28T05:15:05.455Z,99.99
2022-08-28T05:16:05.478Z,99.99
2022-08-28T05:17:05.435Z,99.99
2022-08-28T05:18:06.605Z,99.99
2022-08-28T05:19:05.433Z,99.99
2022-08-28T05:20:05.866Z,99.99
2022-08-28T05:21:05.409Z,99.99
2022-08-28T05:22:05.384Z,99.99
2022-08-28T18:38:36.382Z,70.79
2022-08-28T18:39:37.366Z,73.18
2022-08-28T18:40:37.380Z,69.69
2022-08-28T18:41:43.979Z,71.29
2022-08-28T18:42:37.337Z,72.62
2022-08-28T18:43:37.341Z,69.92
2022-08-28T18:44:37.309Z,69.32
2022-08-28T18:45:37.295Z,68.83
2022-08-28T18:46:37.356Z,69.13
2022-08-28T18:47:37.514Z,70.23
2022-08-28T18:48:37.285Z,72.52
2022-08-28T18:49:37.259Z,69.46
2022-08-28T18:50:37.254Z,71.36
2022-08-28T18:51:37.233Z,72.75
2022-08-28T18:52:37.223Z,70.65
2022-08-28T18:53:37.243Z,72.09
2022-08-28T18:54:37.201Z,71.99
2022-08-28T18:55:37.196Z,73.69
2022-08-28T18:56:38.347Z,76.32
2022-08-28T18:57:37.173Z,74.02
2022-08-28T18:58:37.179Z,74.22
2022-08-28T18:59:37.153Z,73.32
2022-08-28T19:00:37.138Z,72.02
2022-08-28T19:01:37.281Z,71.92
2022-08-28T19:02:41.479Z,72.76
2022-08-28T19:03:37.131Z,72.96
2022-08-28T19:04:37.103Z,72.86
2022-08-28T19:05:37.093Z,76.06
2022-08-28T19:06:37.077Z,76.65
2022-08-28T19:07:37.070Z,76.86
2022-08-28T19:08:37.079Z,76.26
2022-08-28T19:09:37.048Z,75.96
2022-08-28T19:10:37.038Z,74.85
2022-08-28T19:11:37.028Z,76.56
2022-08-28T19:12:37.022Z,76.86
2022-08-28T19:13:37.033Z,77.39
2022-08-28T19:14:37.000Z,76.99
2022-08-28T19:15:37.035Z,75.89
2022-08-28T19:16:36.980Z,75.43
2022-08-28T19:17:36.973Z,75.52
2022-08-28T19:18:36.979Z,75.83
2022-08-28T19:19:36.953Z,77.97
2022-08-28T19:20:36.954Z,77.67
2022-08-28T19:21:36.934Z,77.06
2022-08-28T19:22:36.913Z,77.47
2022-08-28T19:23:36.929Z,77.86
2022-08-28T19:24:36.895Z,78.47
2022-08-28T19:25:36.902Z,77.47
2022-08-28T19:26:36.874Z,77.50
2022-08-28T19:27:36.869Z,78.60
2022-08-28T19:28:36.888Z,79.50
2022-08-28T19:29:36.863Z,81.30
2022-08-28T19:30:36.837Z,79.24
2022-08-28T19:31:36.924Z,79.64
2022-08-28T19:32:36.814Z,80.15
2022-08-28T19:33:36.826Z,80.15
2022-08-28T19:34:36.845Z,79.54
2022-08-28T19:35:36.784Z,79.64
2022-08-28T19:36:36.773Z,79.85
2022-08-28T19:37:39.738Z,81.85
2022-08-28T19:38:36.801Z,82.15
2022-08-28T19:39:36.744Z,80.58
2022-08-28T19:40:36.799Z,80.58
2022-08-28T19:41:36.727Z,81.29
2022-08-28T19:42:36.711Z,81.29
2022-08-28T19:43:43.247Z,81.48
2022-08-28T19:44:36.701Z,81.38
2022-08-28T19:45:36.682Z,83.13
2022-08-28T19:46:36.733Z,82.12
2022-08-28T19:47:36.663Z,82.63
2022-08-28T19:48:36.668Z,84.13
2022-08-28T19:49:36.642Z,81.42
2022-08-28T19:50:36.640Z,81.52
2022-08-28T19:51:36.628Z,81.52
2022-08-28T19:52:36.610Z,80.92
2022-08-28T19:53:36.622Z,82.03
2022-08-28T19:54:36.589Z,82.63
2022-08-28T19:55:36.579Z,82.67
2022-08-28T19:56:36.568Z,84.13
2022-08-28T19:57:36.561Z,82.76
2022-08-28T19:58:36.565Z,83.27
2022-08-28T19:59:36.541Z,82.97
2022-08-28T20:00:36.527Z,82.97
2022-08-28T20:01:36.575Z,83.17
2022-08-28T20:02:36.576Z,83.37
2022-08-28T20:03:36.526Z,83.47
2022-08-28T20:04:36.486Z,84.47
2022-08-28T20:05:38.361Z,82.67
2022-08-28T20:06:36.467Z,82.46
2022-08-28T20:07:36.462Z,82.67
2022-08-28T20:08:36.469Z,81.56
2022-08-28T20:09:36.445Z,82.17
2022-08-28T20:10:36.434Z,83.87
2022-08-28T20:11:36.424Z,83.47
2022-08-28T20:12:36.435Z,83.87
2022-08-28T20:13:36.403Z,81.46
2022-08-28T20:14:36.406Z,80.96
2022-08-28T20:15:36.451Z,81.62
2022-08-28T20:16:36.370Z,83.43
2022-08-28T20:17:43.689Z,84.23
2022-08-28T20:18:36.351Z,83.33
2022-08-28T20:19:36.361Z,82.73
2022-08-28T20:20:36.327Z,82.23
2022-08-28T20:21:37.126Z,80.12
2022-08-28T20:22:36.304Z,81.52
2022-08-28T20:23:36.300Z,82.93
2022-08-28T20:24:36.306Z,80.22
2022-08-28T20:25:36.400Z,80.32
2022-08-28T20:26:36.264Z,80.82
2022-08-28T20:27:36.256Z,80.82
2022-08-28T20:28:36.252Z,82.03
2022-08-28T20:29:36.258Z,79.52
2022-08-28T20:30:36.267Z,79.12
2022-08-28T20:31:36.216Z,78.92
2022-08-28T20:32:36.200Z,80.02
2022-08-28T20:33:36.212Z,80.82
2022-08-28T20:34:36.203Z,81.02
2022-08-28T20:35:36.177Z,80.22
2022-08-28T20:36:36.161Z,79.42
2022-08-28T20:37:41.058Z,79.72
2022-08-28T20:38:36.169Z,80.32
2022-08-28T20:39:36.139Z,79.92
2022-08-28T20:40:36.181Z,79.12
2022-08-28T20:41:36.116Z,79.42
2022-08-28T20:42:36.102Z,81.73
2022-08-28T20:43:36.113Z,80.72
2022-08-28T20:44:36.084Z,79.52
2022-08-28T20:45:36.088Z,79.22
2022-08-28T20:46:40.779Z,78.92
2022-08-28T20:47:36.056Z,80.62
2022-08-28T20:48:36.049Z,80.32
2022-08-28T20:49:39.010Z,79.82
2022-08-28T20:50:36.021Z,80.82
2022-08-28T20:51:36.008Z,79.52
2022-08-28T20:52:36.004Z,78.31
2022-08-28T20:53:37.717Z,78.92
2022-08-28T20:54:35.981Z,79.72
2022-08-28T20:55:35.966Z,82.12
2022-08-28T20:56:35.964Z,81.23
2022-08-28T20:57:35.961Z,79.92
2022-08-28T20:58:35.963Z,79.46
2022-08-28T20:59:40.174Z,80.76
2022-08-28T21:00:35.982Z,79.86
2022-08-28T21:01:35.938Z,79.25
2022-08-28T21:02:36.145Z,79.16
2022-08-28T21:03:35.890Z,79.25
2022-08-28T21:04:35.950Z,79.75
2022-08-28T21:05:35.864Z,79.75
2022-08-28T21:06:35.859Z,79.96
2022-08-28T21:07:35.846Z,79.96
2022-08-28T21:08:35.858Z,81.16
2022-08-28T21:10:01.444Z,79.75
2022-08-28T21:10:35.823Z,81.16
2022-08-28T21:11:35.823Z,80.96
2022-08-28T21:12:35.818Z,80.36
2022-08-28T21:13:35.810Z,80.06
2022-08-28T21:14:35.778Z,79.05
2022-08-28T21:15:35.764Z,80.66
2022-08-28T21:16:35.796Z,80.70
2022-08-28T21:17:35.742Z,80.90
2022-08-28T21:18:35.756Z,79.69
2022-08-28T21:19:40.131Z,79.60
2022-08-28T21:20:35.723Z,80.10
2022-08-28T21:21:35.701Z,79.99
2022-08-28T21:22:36.133Z,79.09
2022-08-28T21:23:35.707Z,79.09
2022-08-28T21:24:35.675Z,79.69
2022-08-28T21:25:35.658Z,80.60
2022-08-28T21:26:35.654Z,81.00
2022-08-28T21:27:35.650Z,80.19
2022-08-28T21:28:35.668Z,80.80
2022-08-28T21:29:35.643Z,81.00
2022-08-28T21:30:35.688Z,80.80
2022-08-28T21:31:35.661Z,81.20
2022-08-28T21:32:35.593Z,80.40
2022-08-28T21:33:35.580Z,82.24
2022-08-28T21:34:35.748Z,81.34
2022-08-28T21:35:35.558Z,80.63
2022-08-28T21:36:36.271Z,80.74
2022-08-28T21:37:35.555Z,81.04
2022-08-28T21:38:35.551Z,81.04
2022-08-28T21:39:36.695Z,81.64
2022-08-28T21:40:35.530Z,82.34
2022-08-28T21:41:35.524Z,81.94
2022-08-28T21:42:35.510Z,81.88
2022-08-28T21:43:35.490Z,81.18
2022-08-28T21:44:35.510Z,81.27
2022-08-28T21:45:41.663Z,81.38
2022-08-28T21:46:35.553Z,81.68
2022-08-28T21:47:35.441Z,81.88
2022-08-28T21:48:35.436Z,83.29
2022-08-28T21:49:35.457Z,84.29
2022-08-28T21:50:35.486Z,82.78
2022-08-28T21:51:35.661Z,82.32
2022-08-28T21:52:35.547Z,82.32
2022-08-28T21:53:35.384Z,83.83
2022-08-28T21:54:35.398Z,83.93
2022-08-28T21:55:35.361Z,83.03
2022-08-28T21:56:35.480Z,83.23
2022-08-28T21:57:35.340Z,83.33
2022-08-28T21:58:35.337Z,83.33
2022-08-28T21:59:38.068Z,82.92
2022-08-28T22:00:35.316Z,84.03
2022-08-28T22:01:35.369Z,84.83
2022-08-28T22:02:35.324Z,83.63
2022-08-28T22:03:35.273Z,83.43
2022-08-28T22:04:35.291Z,83.83
2022-08-28T22:05:35.273Z,84.83
2022-08-28T22:06:35.260Z,85.24
2022-08-28T22:07:35.236Z,85.33
2022-08-28T22:08:35.261Z,85.64
2022-08-28T22:09:35.236Z,86.14
2022-08-28T22:10:38.623Z,85.64
2022-08-28T22:11:35.202Z,85.44
2022-08-28T22:12:35.259Z,85.84
2022-08-28T22:13:36.148Z,85.33
2022-08-28T22:14:35.192Z,84.77
2022-08-28T22:15:35.161Z,84.27
2022-08-28T22:16:35.190Z,84.27
2022-08-28T22:17:35.137Z,84.17
2022-08-28T22:18:35.144Z,85.98
2022-08-28T22:19:35.142Z,85.17
2022-08-28T22:20:35.112Z,85.58
2022-08-28T22:21:35.341Z,83.67
2022-08-28T22:22:36.526Z,84.37
2022-08-28T22:23:35.071Z,86.79
2022-08-28T22:24:35.201Z,85.88
2022-08-28T22:25:40.740Z,84.88
2022-08-28T22:26:35.069Z,86.38
2022-08-28T22:27:35.030Z,85.58
2022-08-28T22:28:35.270Z,84.88
2022-08-28T22:29:35.028Z,85.22
2022-08-28T22:30:35.005Z,86.02
2022-08-28T22:31:35.061Z,85.72
2022-08-28T22:32:34.996Z,85.62
2022-08-28T22:33:34.968Z,85.72
2022-08-28T22:34:34.995Z,86.12
2022-08-28T22:35:34.958Z,86.36
2022-08-28T22:36:35.188Z,86.16
2022-08-28T22:37:34.940Z,86.57
2022-08-28T22:38:34.929Z,86.97
2022-08-28T22:39:34.926Z,86.87
2022-08-28T22:40:35.138Z,87.47
2022-08-28T22:41:34.883Z,86.57
2022-08-28T22:42:34.907Z,86.41
2022-08-28T22:43:34.878Z,86.41
2022-08-28T22:44:34.881Z,86.91
2022-08-28T22:45:34.932Z,86.61
2022-08-28T22:46:34.851Z,87.01
2022-08-28T22:47:34.841Z,88.12
2022-08-28T22:48:34.832Z,87.41
2022-08-28T22:49:34.852Z,86.81
2022-08-28T22:50:34.835Z,86.71
2022-08-28T22:51:34.802Z,87.51
2022-08-28T22:52:34.777Z,86.10
2022-08-28T22:53:34.763Z,87.11
2022-08-28T22:54:34.795Z,87.01
2022-08-28T22:55:35.618Z,86.91
2022-08-28T22:56:35.674Z,86.41
2022-08-28T22:57:34.726Z,86.10
2022-08-28T22:58:34.726Z,87.31
2022-08-28T22:59:34.730Z,86.71
2022-08-28T23:00:34.708Z,86.81
2022-08-28T23:01:34.685Z,86.91
2022-08-28T23:02:34.726Z,86.41
2022-08-28T23:03:34.803Z,86.51
2022-08-28T23:04:34.686Z,87.21
2022-08-28T23:05:34.666Z,87.41
2022-08-28T23:06:34.643Z,86.65
2022-08-28T23:07:34.650Z,86.44
2022-08-28T23:08:34.615Z,86.65
2022-08-28T23:09:36.059Z,87.25
2022-08-28T23:10:55.605Z,88.36
2022-08-28T23:11:34.766Z,88.56
2022-08-28T23:12:34.576Z,87.76
2022-08-28T23:13:34.563Z,87.76
2022-08-28T23:14:34.596Z,88.46
2022-08-28T23:15:34.540Z,87.15
2022-08-28T23:16:35.380Z,87.15
2022-08-28T23:17:34.530Z,86.95
2022-08-28T23:18:51.896Z,87.35
2022-08-28T23:19:34.526Z,88.40
2022-08-28T23:20:34.683Z,87.70
2022-08-28T23:21:34.487Z,88.20
2022-08-28T23:22:34.475Z,88.50
2022-08-28T23:23:34.464Z,90.01
2022-08-28T23:24:34.485Z,88.00
2022-08-28T23:25:34.450Z,88.50
2022-08-28T23:26:34.439Z,88.00
2022-08-28T23:27:36.643Z,88.00
2022-08-28T23:28:34.410Z,87.60
2022-08-28T23:29:34.424Z,88.30
2022-08-28T23:30:34.391Z,87.40
2022-08-28T23:31:34.418Z,87.09
2022-08-28T23:32:34.373Z,87.19
2022-08-28T23:33:35.191Z,86.69
2022-08-28T23:34:34.369Z,86.69
2022-08-28T23:35:34.334Z,87.05
2022-08-28T23:36:35.524Z,87.35
2022-08-28T23:37:34.330Z,88.16
2022-08-28T23:38:34.309Z,87.65
2022-08-28T23:39:34.324Z,87.05
2022-08-28T23:40:35.224Z,86.65
2022-08-28T23:41:34.269Z,86.15
2022-08-28T23:42:34.277Z,87.15
2022-08-28T23:43:34.259Z,86.44
2022-08-28T23:44:34.284Z,85.54
2022-08-28T23:45:34.279Z,86.55
2022-08-28T23:46:34.225Z,85.84
2022-08-28T23:47:34.216Z,85.74
2022-08-28T23:48:35.276Z,85.54
2022-08-28T23:49:34.251Z,85.14
2022-08-28T23:50:34.193Z,84.69
2022-08-28T23:51:34.185Z,84.69
2022-08-28T23:52:34.184Z,85.00
2022-08-28T23:53:34.150Z,85.20
2022-08-28T23:54:34.174Z,84.29
2022-08-28T23:55:34.128Z,85.10
2022-08-28T23:56:34.130Z,85.20
2022-08-28T23:57:34.113Z,84.39
2022-08-28T23:58:34.104Z,84.49
2022-08-28T23:59:34.113Z,84.39
